createdAt,value
2022-10-04T00:03:22.654Z,0.00
2022-10-04T00:08:22.475Z,0.00
2022-10-04T00:13:25.429Z,0.00
2022-10-04T00:18:22.504Z,0.00
2022-10-04T00:23:22.218Z,0.00
2022-10-04T00:28:22.727Z,0.00
2022-10-04T00:33:22.239Z,0.00
2022-10-04T00:38:22.216Z,0.00
2022-10-04T00:45:01.648Z,0.00
2022-10-04T00:50:01.334Z,0.00
2022-10-04T00:55:02.220Z,0.00
2022-10-04T01:00:09.669Z,0.00
2022-10-04T01:06:42.928Z,0.00
2022-10-04T01:16:12.155Z,0.00
2022-10-04T01:21:11.863Z,0.00
2022-10-04T01:26:11.816Z,0.00
2022-10-04T01:31:11.662Z,0.00
2022-10-04T01:41:56.332Z,0.00
2022-10-04T01:49:20.515Z,0.00
2022-10-04T01:54:20.573Z,0.00
2022-10-04T01:59:20.568Z,0.00
2022-10-04T02:04:22.528Z,0.00
2022-10-04T02:09:20.323Z,0.00
2022-10-04T02:14:20.257Z,0.00
2022-10-04T02:19:20.309Z,0.00
2022-10-04T02:24:20.040Z,0.00
2022-10-04T02:29:20.076Z,0.00
2022-10-04T02:34:20.009Z,0.00
2022-10-04T02:39:22.993Z,0.00
2022-10-04T02:44:19.874Z,0.00
2022-10-04T02:49:19.738Z,0.00
2022-10-04T02:54:19.748Z,0.00
2022-10-04T02:59:19.656Z,0.00
2022-10-04T03:04:19.508Z,0.00
2022-10-04T03:09:19.474Z,0.00
2022-10-04T03:14:19.379Z,0.00
2022-10-04T03:19:19.490Z,0.00
2022-10-04T03:29:39.194Z,0.00
2022-10-04T03:34:38.908Z,0.00
2022-10-04T03:39:38.863Z,0.00
2022-10-04T03:44:38.918Z,0.00
2022-10-04T04:07:34.963Z,0.00
2022-10-04T04:12:34.351Z,0.00
2022-10-04T04:17:35.234Z,0.00
2022-10-04T04:26:21.028Z,0.00
2022-10-04T04:33:20.898Z,0.00
2022-10-04T04:38:14.088Z,0.00
2022-10-04T04:46:26.032Z,0.00
2022-10-04T04:51:08.299Z,4.00
2022-10-04T05:34:25.435Z,556.00
2022-10-04T05:41:03.820Z,1040.00
2022-10-04T05:46:03.957Z,960.00
2022-10-04T05:51:03.679Z,1116.00
2022-10-04T05:56:03.538Z,1604.00
2022-10-04T06:01:03.679Z,1648.00
2022-10-04T06:13:07.494Z,1940.00
2022-10-04T07:13:52.284Z,4852.00
2022-10-04T07:18:52.356Z,5620.00
2022-10-04T07:35:20.429Z,6936.00
2022-10-04T07:40:20.215Z,6684.00
2022-10-04T07:45:20.098Z,7368.00
2022-10-04T07:50:20.138Z,7744.00
2022-10-04T07:55:20.114Z,7956.00
2022-10-04T08:00:20.224Z,8736.00
2022-10-04T08:05:19.955Z,8160.00
2022-10-04T08:10:19.871Z,8108.00
2022-10-04T08:15:22.351Z,7948.00
2022-10-04T08:20:19.801Z,8012.00
2022-10-04T08:36:22.879Z,9408.00
2022-10-04T08:45:16.792Z,10524.00
2022-10-04T08:54:16.642Z,9856.00
2022-10-04T08:59:16.531Z,10356.00
2022-10-04T09:04:16.344Z,10524.00
2022-10-04T09:09:16.435Z,10744.00
2022-10-04T09:14:16.315Z,10672.00
2022-10-04T09:21:37.884Z,9760.00
2022-10-04T09:26:37.462Z,9068.00
2022-10-04T09:31:37.127Z,8072.00
2022-10-04T09:36:36.891Z,6476.00
2022-10-04T09:41:36.917Z,5288.00
2022-10-04T09:46:36.947Z,4616.00
2022-10-04T09:51:36.717Z,4148.00
2022-10-04T09:56:36.787Z,3952.00
2022-10-04T10:01:36.686Z,3616.00
2022-10-04T10:06:36.469Z,3516.00
2022-10-04T10:11:39.635Z,3368.00
2022-10-04T10:16:36.405Z,3280.00
2022-10-04T10:23:26.952Z,3240.00
2022-10-04T10:28:26.703Z,3220.00
2022-10-04T10:33:26.601Z,3268.00
2022-10-04T10:38:26.594Z,3428.00
2022-10-04T10:43:26.444Z,3768.00
2022-10-04T10:48:26.464Z,4788.00
2022-10-04T10:54:44.384Z,5004.00
2022-10-04T10:59:44.215Z,5556.00
2022-10-04T11:04:44.125Z,5524.00
2022-10-04T11:09:43.911Z,4516.00
2022-10-04T11:14:43.975Z,3888.00
2022-10-04T11:19:43.793Z,3508.00
2022-10-04T11:24:44.678Z,3316.00
2022-10-04T11:29:43.638Z,3264.00
2022-10-04T11:34:43.729Z,3180.00
2022-10-04T11:39:44.615Z,3120.00
2022-10-04T11:44:46.549Z,3056.00
2022-10-04T11:49:43.409Z,3036.00
2022-10-04T11:54:43.565Z,3036.00
2022-10-04T11:59:43.423Z,3052.00
2022-10-04T12:04:43.260Z,3020.00
2022-10-04T12:09:43.375Z,2992.00
2022-10-04T12:17:55.326Z,3064.00
2022-10-04T12:24:12.959Z,3044.00
2022-10-04T12:30:53.861Z,3084.00
2022-10-04T12:35:52.722Z,3156.00
2022-10-04T12:40:52.623Z,2932.00
2022-10-04T12:47:10.323Z,3248.00
2022-10-04T12:53:27.773Z,3268.00
2022-10-04T12:58:34.778Z,3344.00
2022-10-04T13:04:45.204Z,3504.00
2022-10-04T13:10:19.125Z,3472.00
2022-10-04T13:14:45.909Z,3500.00
2022-10-04T13:19:44.929Z,3772.00
2022-10-04T13:24:44.704Z,3864.00
2022-10-04T13:29:44.723Z,4856.00
2022-10-04T13:34:45.044Z,3660.00
2022-10-04T13:39:45.722Z,3668.00
2022-10-04T13:44:44.515Z,3776.00
2022-10-04T13:49:44.514Z,4016.00
2022-10-04T13:54:47.434Z,4272.00
2022-10-04T13:59:44.413Z,4520.00
2022-10-04T14:04:44.385Z,4708.00
2022-10-04T14:09:44.112Z,4756.00
2022-10-04T14:14:44.223Z,4308.00
2022-10-04T14:19:44.089Z,4872.00
2022-10-04T14:24:44.010Z,4856.00
2022-10-04T14:29:43.839Z,5100.00
2022-10-04T14:34:43.834Z,4272.00
2022-10-04T14:39:43.764Z,2700.00
2022-10-04T14:44:45.470Z,2480.00
2022-10-04T14:49:43.530Z,2364.00
2022-10-04T14:54:46.707Z,2332.00
2022-10-04T14:59:43.527Z,2272.00
2022-10-04T15:04:44.066Z,2220.00
2022-10-04T15:09:43.358Z,2216.00
2022-10-04T15:14:43.384Z,2140.00
2022-10-04T15:19:43.139Z,2088.00
2022-10-04T15:24:43.125Z,2036.00
2022-10-04T15:29:43.306Z,1984.00
2022-10-04T15:34:43.017Z,1912.00
2022-10-04T15:40:48.457Z,1856.00
2022-10-04T15:46:02.254Z,1796.00
2022-10-04T15:50:49.155Z,1720.00
2022-10-04T15:55:48.143Z,1624.00
2022-10-04T16:00:48.169Z,1528.00
2022-10-04T16:05:48.125Z,1412.00
2022-10-04T16:10:48.015Z,1292.00
2022-10-04T16:15:47.914Z,1152.00
2022-10-04T16:20:48.275Z,992.00
2022-10-04T16:25:49.367Z,796.00
2022-10-04T16:30:52.436Z,616.00
2022-10-04T16:35:52.646Z,416.00
2022-10-04T16:40:47.926Z,272.00
2022-10-04T16:45:47.716Z,160.00
2022-10-04T16:50:47.530Z,88.00
2022-10-04T16:55:47.562Z,44.00
2022-10-04T17:00:47.389Z,20.00
2022-10-04T17:05:47.195Z,8.00
2022-10-04T17:10:47.406Z,4.00
2022-10-04T17:15:47.115Z,0.00
2022-10-04T17:20:47.166Z,0.00
2022-10-04T17:25:47.050Z,0.00
2022-10-04T17:32:13.475Z,0.00
2022-10-04T17:38:32.010Z,0.00
2022-10-04T17:43:39.986Z,0.00
2022-10-04T17:48:39.756Z,0.00
2022-10-04T17:53:31.771Z,0.00
2022-10-04T17:58:31.619Z,0.00
2022-10-04T18:03:31.949Z,0.00
2022-10-04T18:08:43.431Z,0.00
2022-10-04T18:15:21.566Z,0.00
2022-10-04T18:20:26.343Z,0.00
2022-10-04T18:25:22.962Z,0.00
2022-10-04T18:30:21.076Z,0.00
2022-10-04T18:35:21.018Z,0.00
2022-10-04T18:40:21.649Z,0.00
2022-10-04T18:45:21.042Z,0.00
2022-10-04T18:50:21.870Z,0.00
2022-10-04T18:55:23.429Z,0.00
2022-10-04T19:00:20.969Z,0.00
2022-10-04T19:05:24.073Z,0.00
2022-10-04T19:10:21.450Z,0.00
2022-10-04T19:15:20.574Z,0.00
2022-10-04T19:20:20.439Z,0.00
2022-10-04T19:25:20.753Z,0.00
2022-10-04T19:30:20.338Z,0.00
2022-10-04T19:35:20.567Z,0.00
2022-10-04T19:40:29.080Z,0.00
2022-10-04T19:45:20.136Z,0.00
2022-10-04T19:50:20.058Z,0.00
2022-10-04T19:55:19.989Z,0.00
2022-10-04T20:00:21.207Z,0.00
2022-10-04T20:05:23.434Z,0.00
2022-10-04T20:10:19.814Z,0.00
2022-10-04T20:15:23.893Z,0.00
2022-10-04T20:20:20.699Z,0.00
2022-10-04T20:25:20.674Z,0.00
2022-10-04T20:30:19.605Z,0.00
2022-10-04T20:35:20.385Z,0.00
2022-10-04T20:40:19.414Z,0.00
2022-10-04T20:45:20.020Z,0.00
2022-10-04T20:50:19.319Z,0.00
2022-10-04T20:55:19.263Z,0.00
2022-10-04T21:00:19.198Z,0.00
2022-10-04T21:05:22.723Z,0.00
2022-10-04T21:10:19.145Z,0.00
2022-10-04T21:15:19.864Z,0.00
2022-10-04T21:20:18.838Z,0.00
2022-10-04T21:25:18.858Z,0.00
2022-10-04T21:30:18.793Z,0.00
2022-10-04T21:35:18.656Z,0.00
2022-10-04T21:40:18.598Z,0.00
2022-10-04T21:45:18.626Z,0.00
2022-10-04T21:50:18.433Z,0.00
2022-10-04T21:55:26.794Z,0.00
2022-10-04T22:00:25.823Z,0.00
2022-10-04T22:05:29.297Z,0.00
2022-10-04T22:10:18.269Z,0.00
2022-10-04T22:15:18.119Z,0.00
2022-10-04T22:20:18.029Z,0.00
2022-10-04T22:25:18.120Z,0.00
2022-10-04T22:30:17.972Z,0.00
2022-10-04T22:35:17.863Z,0.00
2022-10-04T22:40:17.765Z,0.00
2022-10-04T22:45:17.730Z,0.00
2022-10-04T22:50:17.649Z,0.00
2022-10-04T22:55:17.961Z,0.00
2022-10-04T23:00:17.578Z,0.00
2022-10-04T23:05:20.536Z,0.00
2022-10-04T23:10:17.455Z,0.00
2022-10-04T23:15:17.383Z,0.00
2022-10-04T23:20:17.216Z,0.00
2022-10-04T23:26:34.981Z,0.00
2022-10-04T23:31:34.854Z,0.00
2022-10-04T23:36:34.753Z,0.00
2022-10-04T23:41:35.051Z,0.00
2022-10-04T23:46:34.683Z,0.00
2022-10-04T23:55:56.908Z,0.00
